Terminal Aerodrome Forecast
Issued by NWS Sioux Falls, SD

Home | Current Version | Previous Version | Graphics & Text | Print | Product List | Glossary On
Versions: 1 2 3 4 5 6 7 8 9 10 11 12 13 14 15 16 17 18 19
000
FTUS43 KFSD 241505 AAB
TAFHON
TAF AMD
KHON 241505Z 2415/2512 06007KT 2SM -RA BR OVC007
      TEMPO 2415/2416 3SM -RA BR OVC012
     FM242000 08008KT 5SM BR OVC012
     FM250100 04005KT P6SM OVC015
     FM250500 33005KT P6SM OVC015=

USA.gov is the U.S. government's official web portal to all federal, state and local government web resources and services.